Accueil
METAR-TAF:

METAR-TAF

Aéroports :

Woensdrecht, Pays-Bas

latitude: 51-27N, longitude: 004-20E, altitude: 20 m

Observation

Le bulletin a été fait il y a 26 minutes, à 21:25 UTC
Vent 2 kt de sud-est
Température 2°C
Humidité 93%
Pression 1024 hPa
Visibilité 10 km ou plus
Ciel couvert à une hauteur de 37000 ft

METAR: EHWO 232125Z AUTO 14002KT 9999 OVC370 02/01 Q1024 BLU

Heure: 23:51 (21:51 UTC)


TAF: absent

Observations et prévisions météorologiques de plus de 4000 aéroports (messages METAR et TAF).

Les stations disponibles sont représentées par des disques jaunes et rouges sur la carte.

Passer la souris dessus pour voir le nom de la station.

Cliquer dessus pour voir les observations et prévisions météorologiques.

Pour changer de carte: cliquez sur les boutons verts avec une croix noire pour zoomer, sur le bouton vert avec un tiret pour effectuer un zoom arrière, ou sur les flèches vertes pour les cartes adjacentes.


METAR-TAF: